createdAt,value
2023-10-27T00:02:10.575Z,8.51
2023-10-27T00:04:38.553Z,8.52
2023-10-27T00:07:06.451Z,8.33
2023-10-27T00:09:37.118Z,8.36
2023-10-27T00:12:05.273Z,8.30
2023-10-27T00:14:34.533Z,8.33
2023-10-27T00:17:02.630Z,8.24
2023-10-27T00:19:31.953Z,8.38
2023-10-27T00:21:59.893Z,8.36
2023-10-27T00:24:28.348Z,8.24
2023-10-27T00:26:56.422Z,8.24
2023-10-27T00:29:25.567Z,8.18
2023-10-27T00:31:53.440Z,7.99
2023-10-27T00:34:21.761Z,7.94
2023-10-27T00:36:51.331Z,8.01
2023-10-27T00:39:19.229Z,8.05
2023-10-27T00:41:47.180Z,8.05
2023-10-27T00:44:15.033Z,8.02
2023-10-27T00:46:45.218Z,8.02
2023-10-27T00:49:13.683Z,8.14
2023-10-27T00:51:42.530Z,8.16
2023-10-27T00:54:12.498Z,8.19
2023-10-27T00:56:41.326Z,8.21
2023-10-27T00:59:09.679Z,8.27
2023-10-27T01:01:38.466Z,8.31
2023-10-27T01:04:07.061Z,8.29
2023-10-27T01:06:35.096Z,7.99
2023-10-27T01:09:03.163Z,7.74
2023-10-27T01:11:32.392Z,7.79
2023-10-27T01:14:00.341Z,7.70
2023-10-27T01:16:28.393Z,7.51
2023-10-27T01:18:57.103Z,7.54
2023-10-27T01:21:25.008Z,7.65
2023-10-27T01:23:54.231Z,7.63
2023-10-27T01:26:22.191Z,7.68
2023-10-27T01:28:50.284Z,7.83
2023-10-27T01:31:18.992Z,7.86
2023-10-27T01:33:46.992Z,7.84
2023-10-27T01:36:15.170Z,7.84
2023-10-27T01:38:43.157Z,7.80
2023-10-27T01:41:12.567Z,7.76
2023-10-27T01:43:40.414Z,7.80
2023-10-27T01:46:08.621Z,7.91
2023-10-27T01:48:37.349Z,7.90
2023-10-27T01:51:05.705Z,7.94
2023-10-27T01:53:35.032Z,7.89
2023-10-27T01:56:03.198Z,7.93
2023-10-27T01:58:32.441Z,7.97
2023-10-27T02:01:00.389Z,7.92
2023-10-27T02:03:28.388Z,7.89
2023-10-27T02:05:56.271Z,7.92
2023-10-27T02:08:24.161Z,8.05
2023-10-27T02:10:52.232Z,8.13
2023-10-27T02:13:20.130Z,7.80
2023-10-27T02:15:49.412Z,8.02
2023-10-27T02:18:17.648Z,7.96
2023-10-27T02:20:45.582Z,7.94
2023-10-27T02:23:13.582Z,7.68
2023-10-27T02:25:41.445Z,7.79
2023-10-27T02:28:09.615Z,7.68
2023-10-27T02:30:37.580Z,7.85
2023-10-27T02:33:06.857Z,7.92
2023-10-27T02:35:34.894Z,8.02
2023-10-27T02:38:05.188Z,8.14
2023-10-27T02:40:33.196Z,8.13
2023-10-27T02:43:03.022Z,8.09
2023-10-27T02:45:31.768Z,8.10
2023-10-27T02:47:59.734Z,8.06
2023-10-27T02:50:29.029Z,7.98
2023-10-27T02:52:57.681Z,8.04
2023-10-27T02:55:26.442Z,7.89
2023-10-27T02:57:55.227Z,7.91
2023-10-27T03:00:24.344Z,7.97
2023-10-27T03:02:53.153Z,7.94
2023-10-27T03:05:22.560Z,7.91
2023-10-27T03:07:52.560Z,7.88
2023-10-27T03:10:21.823Z,7.82
2023-10-27T03:12:50.706Z,7.74
2023-10-27T03:15:19.454Z,7.77
2023-10-27T03:17:48.052Z,7.87
2023-10-27T03:20:17.611Z,7.89
2023-10-27T03:22:46.316Z,7.87
2023-10-27T03:25:16.315Z,7.79
2023-10-27T03:27:45.381Z,7.89
2023-10-27T03:30:15.315Z,7.83
2023-10-27T03:32:43.990Z,7.95
2023-10-27T03:35:12.688Z,7.92
2023-10-27T03:37:41.338Z,7.94
2023-10-27T03:40:11.631Z,8.10
2023-10-27T03:42:41.802Z,8.11
2023-10-27T03:45:10.901Z,8.13
2023-10-27T03:47:41.019Z,8.04
2023-10-27T03:50:12.337Z,8.03
2023-10-27T03:52:41.144Z,7.95
2023-10-27T03:55:12.857Z,7.98
2023-10-27T03:57:43.742Z,7.93
2023-10-27T04:00:14.859Z,8.01
2023-10-27T04:02:42.678Z,8.05
2023-10-27T04:05:10.914Z,8.10
2023-10-27T04:07:38.792Z,7.96
2023-10-27T04:10:08.140Z,7.95
2023-10-27T04:12:36.895Z,7.87
2023-10-27T04:15:09.617Z,7.92
2023-10-27T04:17:38.778Z,7.93
2023-10-27T04:20:09.018Z,7.93
2023-10-27T04:22:37.546Z,8.06
2023-10-27T04:25:06.802Z,8.30
2023-10-27T04:27:35.500Z,8.27
2023-10-27T04:30:05.455Z,8.13
2023-10-27T04:32:35.449Z,8.05
2023-10-27T04:35:04.195Z,7.91
2023-10-27T04:37:33.791Z,7.81
2023-10-27T04:40:02.825Z,7.85
2023-10-27T04:42:31.718Z,7.90
2023-10-27T04:45:00.525Z,7.93
2023-10-27T04:47:29.193Z,8.08
2023-10-27T04:49:58.560Z,8.18
2023-10-27T04:52:27.002Z,8.03
2023-10-27T04:54:56.660Z,8.09
2023-10-27T04:57:25.008Z,8.11
2023-10-27T04:59:53.779Z,8.10
2023-10-27T05:02:22.460Z,8.18
2023-10-27T05:04:51.278Z,8.16
2023-10-27T05:07:21.365Z,8.17
2023-10-27T05:09:51.442Z,8.31
2023-10-27T05:12:20.222Z,8.34
2023-10-27T05:14:48.915Z,8.40
2023-10-27T05:17:18.797Z,8.43
2023-10-27T05:19:47.638Z,8.41
2023-10-27T05:22:16.492Z,8.42
2023-10-27T05:24:46.496Z,8.38
2023-10-27T05:27:15.540Z,8.26
2023-10-27T05:29:44.501Z,8.38
2023-10-27T05:32:14.772Z,8.23
2023-10-27T05:34:43.576Z,8.46
2023-10-27T05:37:12.424Z,8.45
2023-10-27T05:39:40.898Z,8.25
2023-10-27T05:42:10.892Z,8.40
2023-10-27T05:44:41.418Z,8.50
2023-10-27T05:47:09.669Z,8.43
2023-10-27T05:49:38.525Z,8.36
2023-10-27T05:52:07.217Z,8.20
2023-10-27T05:54:35.893Z,8.27
2023-10-27T05:57:05.181Z,8.17
2023-10-27T05:59:35.167Z,8.19
2023-10-27T06:02:14.610Z,8.22
2023-10-27T06:04:43.966Z,8.24
2023-10-27T06:07:16.992Z,8.28
2023-10-27T06:09:46.845Z,8.25
2023-10-27T06:12:19.199Z,8.17
2023-10-27T06:14:52.321Z,8.05
2023-10-27T06:17:20.944Z,8.08
2023-10-27T06:20:01.456Z,8.13
2023-10-27T06:22:38.443Z,8.15
2023-10-27T06:25:07.897Z,8.21
2023-10-27T06:27:38.928Z,8.25
2023-10-27T06:30:10.169Z,8.32
2023-10-27T06:32:38.998Z,8.39
2023-10-27T06:35:07.682Z,8.39
2023-10-27T06:37:36.582Z,8.51
2023-10-27T06:40:06.358Z,8.59
2023-10-27T06:42:35.468Z,8.59
2023-10-27T06:45:05.432Z,8.80
2023-10-27T06:47:36.020Z,8.72
2023-10-27T06:50:05.486Z,8.67
2023-10-27T06:52:35.755Z,8.56
2023-10-27T06:55:05.347Z,8.34
2023-10-27T06:57:34.993Z,8.40
2023-10-27T07:00:03.614Z,8.51
2023-10-27T07:02:45.449Z,8.52
2023-10-27T07:05:23.441Z,8.68
2023-10-27T07:07:52.353Z,8.58
2023-10-27T07:10:21.775Z,8.74
2023-10-27T07:12:50.393Z,8.78
2023-10-27T07:15:20.924Z,8.70
2023-10-27T07:17:49.270Z,8.92
2023-10-27T07:20:18.584Z,8.87
2023-10-27T07:22:48.060Z,8.84
2023-10-27T07:25:16.128Z,8.98
2023-10-27T07:27:45.648Z,9.13
2023-10-27T07:30:15.235Z,9.24
2023-10-27T07:32:43.691Z,9.32
2023-10-27T07:35:12.416Z,9.42
2023-10-27T07:37:41.633Z,9.33
2023-10-27T07:40:12.597Z,9.33
2023-10-27T07:42:41.210Z,9.33
2023-10-27T07:45:10.466Z,9.33
2023-10-27T07:47:39.081Z,9.27
2023-10-27T07:50:08.173Z,9.34
2023-10-27T07:52:36.936Z,9.32
2023-10-27T07:55:07.983Z,9.43
2023-10-27T07:57:38.053Z,9.29
2023-10-27T08:00:11.329Z,9.35
2023-10-27T08:02:40.524Z,9.24
2023-10-27T08:05:09.294Z,9.27
2023-10-27T08:07:38.242Z,9.23
2023-10-27T08:10:09.117Z,9.18
2023-10-27T08:12:43.346Z,9.23
2023-10-27T08:15:12.052Z,9.17
2023-10-27T08:17:40.266Z,9.24
2023-10-27T08:20:09.635Z,9.27
2023-10-27T08:22:38.521Z,9.24
2023-10-27T08:25:07.461Z,9.24
2023-10-27T08:27:36.178Z,9.31
2023-10-27T08:30:07.159Z,9.32
2023-10-27T08:32:35.900Z,9.24
2023-10-27T08:35:04.154Z,9.26
2023-10-27T08:37:32.074Z,9.34
2023-10-27T08:39:59.979Z,9.31
2023-10-27T08:42:29.072Z,9.26
2023-10-27T08:44:58.634Z,9.30
2023-10-27T08:47:32.112Z,9.32
2023-10-27T08:50:02.284Z,9.31
2023-10-27T08:52:30.550Z,9.34
2023-10-27T08:55:00.617Z,9.30
2023-10-27T08:57:27.628Z,9.28
2023-10-27T08:59:56.856Z,9.33
2023-10-27T09:02:37.077Z,9.33
2023-10-27T09:05:08.192Z,9.32
2023-10-27T09:07:36.604Z,9.33
2023-10-27T09:10:08.712Z,9.39
2023-10-27T09:12:39.066Z,9.41
2023-10-27T09:15:09.739Z,9.41
2023-10-27T09:17:56.141Z,9.48
2023-10-27T09:20:26.927Z,9.49
2023-10-27T09:22:59.985Z,9.47
2023-10-27T09:25:33.167Z,9.53
2023-10-27T09:28:03.550Z,9.60
2023-10-27T09:30:34.856Z,9.59
2023-10-27T09:33:15.733Z,9.52
2023-10-27T09:35:44.676Z,9.64
2023-10-27T09:38:14.465Z,9.78
2023-10-27T09:40:43.828Z,9.76
2023-10-27T09:43:18.793Z,9.75
2023-10-27T09:45:54.396Z,9.81
2023-10-27T09:48:29.138Z,9.86
2023-10-27T09:51:02.579Z,9.80
2023-10-27T09:53:31.769Z,9.82
2023-10-27T09:56:01.484Z,9.95
2023-10-27T09:58:32.828Z,10.00
2023-10-27T10:01:03.184Z,10.00
2023-10-27T10:03:34.036Z,9.85
2023-10-27T10:06:11.492Z,10.00
2023-10-27T10:08:40.159Z,10.13
2023-10-27T10:11:16.126Z,10.07
2023-10-27T10:13:46.334Z,10.13
2023-10-27T10:16:16.229Z,10.21
2023-10-27T10:18:56.616Z,10.19
2023-10-27T10:21:44.438Z,10.26
2023-10-27T10:24:13.048Z,10.22
2023-10-27T10:27:12.159Z,10.31
2023-10-27T10:29:41.733Z,10.19
2023-10-27T10:32:35.634Z,10.25
2023-10-27T10:35:28.883Z,10.13
2023-10-27T10:37:57.419Z,10.25
2023-10-27T10:40:29.385Z,10.32
2023-10-27T10:43:25.219Z,10.29
2023-10-27T10:45:56.356Z,10.30
2023-10-27T10:48:27.580Z,10.23
2023-10-27T10:51:00.512Z,10.38
2023-10-27T10:53:28.545Z,10.37
2023-10-27T10:56:02.118Z,10.34
2023-10-27T10:58:31.982Z,10.37
2023-10-27T11:01:02.377Z,10.43
2023-10-27T11:03:33.300Z,10.36
2023-10-27T11:06:06.969Z,10.48
2023-10-27T11:08:39.122Z,10.56
2023-10-27T11:11:09.295Z,10.54
2023-10-27T11:13:43.030Z,10.55
2023-10-27T11:16:18.971Z,10.56
2023-10-27T11:18:49.353Z,10.48
2023-10-27T11:21:20.406Z,10.68
2023-10-27T11:23:50.167Z,10.76
2023-10-27T11:26:20.969Z,10.78
2023-10-27T11:28:50.304Z,10.78
2023-10-27T11:31:28.758Z,10.83
2023-10-27T11:33:58.489Z,10.82
2023-10-27T11:36:29.449Z,10.70
2023-10-27T11:38:58.333Z,10.60
2023-10-27T11:41:26.803Z,10.61
2023-10-27T11:43:55.684Z,10.81
2023-10-27T11:46:24.066Z,10.79
2023-10-27T11:48:52.681Z,10.82
2023-10-27T11:51:21.008Z,10.84
2023-10-27T11:53:51.371Z,10.89
2023-10-27T11:56:20.388Z,10.90
2023-10-27T11:58:48.690Z,10.91
2023-10-27T12:01:17.169Z,10.92
2023-10-27T12:03:45.203Z,10.97
2023-10-27T12:06:13.694Z,10.82
2023-10-27T12:08:42.205Z,10.95
2023-10-27T12:11:11.655Z,10.94
2023-10-27T12:13:40.314Z,10.94
2023-10-27T12:16:09.335Z,10.91
2023-10-27T12:18:37.964Z,10.96
2023-10-27T12:21:07.089Z,10.86
2023-10-27T12:23:35.176Z,10.93
2023-10-27T12:26:04.895Z,10.93
2023-10-27T12:28:34.221Z,11.01
2023-10-27T12:31:03.010Z,11.06
2023-10-27T12:33:31.575Z,11.11
2023-10-27T12:36:07.345Z,11.23
2023-10-27T12:38:36.445Z,11.20
2023-10-27T12:41:06.159Z,11.13
2023-10-27T12:43:36.449Z,11.19
2023-10-27T12:46:06.012Z,11.22
2023-10-27T12:48:35.955Z,11.25
2023-10-27T12:51:04.924Z,11.20
2023-10-27T12:53:33.258Z,11.27
2023-10-27T12:56:01.745Z,11.34
2023-10-27T12:58:30.501Z,11.24
2023-10-27T13:01:02.688Z,11.29
2023-10-27T13:03:32.249Z,11.27
2023-10-27T13:06:00.456Z,11.21
2023-10-27T13:08:28.971Z,11.24
2023-10-27T13:10:58.068Z,11.20
2023-10-27T13:13:26.694Z,11.21
2023-10-27T13:15:55.353Z,11.30
2023-10-27T13:18:26.714Z,11.40
2023-10-27T13:20:55.789Z,11.39
2023-10-27T13:23:24.495Z,11.43
2023-10-27T13:26:03.762Z,11.47
2023-10-27T13:28:32.451Z,11.42
2023-10-27T13:31:01.341Z,11.28
2023-10-27T13:33:31.617Z,11.17
2023-10-27T13:36:03.079Z,11.23
2023-10-27T13:38:30.985Z,11.23
2023-10-27T13:40:59.346Z,11.36
2023-10-27T13:43:28.872Z,11.37
2023-10-27T13:46:01.643Z,11.43
2023-10-27T13:48:34.733Z,11.50
2023-10-27T13:51:10.581Z,11.49
2023-10-27T13:53:39.335Z,11.45
2023-10-27T13:56:13.891Z,11.49
2023-10-27T13:58:42.974Z,11.51
2023-10-27T14:01:11.731Z,11.44
2023-10-27T14:03:41.920Z,11.48
2023-10-27T14:06:13.420Z,11.26
2023-10-27T14:08:42.625Z,11.27
2023-10-27T14:11:11.405Z,11.28
2023-10-27T14:13:39.940Z,11.18
2023-10-27T14:16:12.129Z,11.21
2023-10-27T14:18:42.371Z,10.94
2023-10-27T14:21:11.099Z,10.74
2023-10-27T14:23:39.921Z,10.92
2023-10-27T14:26:12.694Z,11.09
2023-10-27T14:28:43.320Z,11.11
2023-10-27T14:31:12.373Z,11.16
2023-10-27T14:33:43.037Z,11.16
2023-10-27T14:36:14.354Z,11.16
2023-10-27T14:38:43.389Z,11.14
2023-10-27T14:41:12.315Z,10.98
2023-10-27T14:43:41.068Z,10.83
2023-10-27T14:46:12.702Z,10.86
2023-10-27T14:48:42.251Z,10.80
2023-10-27T14:51:11.345Z,10.58
2023-10-27T14:53:39.367Z,10.40
2023-10-27T14:56:09.887Z,10.32
2023-10-27T14:58:38.294Z,10.34
2023-10-27T15:01:07.850Z,10.18
2023-10-27T15:03:38.509Z,10.39
2023-10-27T15:06:10.526Z,10.43
2023-10-27T15:08:39.631Z,10.57
2023-10-27T15:11:08.926Z,10.56
2023-10-27T15:13:37.987Z,10.57
2023-10-27T15:16:09.111Z,10.46
2023-10-27T15:18:37.510Z,10.61
2023-10-27T15:21:07.476Z,10.63
2023-10-27T15:23:38.106Z,10.56
2023-10-27T15:26:07.998Z,10.62
2023-10-27T15:28:36.900Z,10.76
2023-10-27T15:31:07.441Z,10.62
2023-10-27T15:33:39.700Z,10.81
2023-10-27T15:36:10.500Z,10.87
2023-10-27T15:38:42.173Z,10.95
2023-10-27T15:41:25.672Z,10.96
2023-10-27T15:43:54.849Z,10.94
2023-10-27T15:46:23.490Z,10.85
2023-10-27T15:48:52.466Z,10.78
2023-10-27T15:51:22.037Z,10.72
2023-10-27T15:53:52.042Z,10.65
2023-10-27T15:56:25.484Z,10.71
2023-10-27T15:58:54.129Z,10.91
2023-10-27T16:01:22.433Z,11.07
2023-10-27T16:03:51.158Z,11.10
2023-10-27T16:06:20.056Z,11.12
2023-10-27T16:08:48.922Z,11.09
2023-10-27T16:11:18.612Z,11.02
2023-10-27T16:13:47.660Z,11.04
2023-10-27T16:16:19.033Z,10.90
2023-10-27T16:18:48.601Z,10.76
2023-10-27T16:21:17.270Z,10.72
2023-10-27T16:23:45.869Z,10.51
2023-10-27T16:26:15.307Z,10.57
2023-10-27T16:28:44.639Z,10.52
2023-10-27T16:31:12.875Z,10.49
2023-10-27T16:33:41.402Z,10.48
2023-10-27T16:36:13.082Z,10.52
2023-10-27T16:38:41.053Z,10.48
2023-10-27T16:41:09.654Z,10.42
2023-10-27T16:43:41.366Z,10.46
2023-10-27T16:46:11.244Z,10.39
2023-10-27T16:48:40.004Z,10.41
2023-10-27T16:51:10.847Z,10.38
2023-10-27T16:53:40.424Z,10.39
2023-10-27T16:56:10.294Z,10.40
2023-10-27T16:58:39.734Z,10.37
2023-10-27T17:01:08.604Z,10.35
2023-10-27T17:03:38.368Z,10.31
2023-10-27T17:06:08.249Z,10.33
2023-10-27T17:08:36.469Z,10.40
2023-10-27T17:11:07.028Z,10.40
2023-10-27T17:13:37.715Z,10.36
2023-10-27T17:16:09.967Z,10.26
2023-10-27T17:18:41.822Z,10.41
2023-10-27T17:21:14.284Z,10.36
2023-10-27T17:23:43.437Z,10.25
2023-10-27T17:26:12.267Z,10.28
2023-10-27T17:28:41.250Z,10.31
2023-10-27T17:31:11.062Z,10.30
2023-10-27T17:33:41.377Z,10.27
2023-10-27T17:36:11.676Z,10.36
2023-10-27T17:38:40.460Z,10.41
2023-10-27T17:41:10.081Z,10.38
2023-10-27T17:43:39.765Z,10.34
2023-10-27T17:46:09.074Z,10.34
2023-10-27T17:48:37.553Z,10.37
2023-10-27T17:51:09.307Z,10.27
2023-10-27T17:53:39.878Z,10.31
2023-10-27T17:56:09.629Z,10.39
2023-10-27T17:58:38.712Z,10.37
2023-10-27T18:01:08.941Z,10.31
2023-10-27T18:03:38.636Z,10.28
2023-10-27T18:06:13.403Z,10.32
2023-10-27T18:08:42.422Z,10.36
2023-10-27T18:11:11.200Z,10.26
2023-10-27T18:13:40.374Z,10.28
2023-10-27T18:16:09.497Z,10.27
2023-10-27T18:18:37.984Z,10.29
2023-10-27T18:21:11.991Z,10.32
2023-10-27T18:23:40.328Z,10.35
2023-10-27T18:26:15.443Z,10.34
2023-10-27T18:28:43.533Z,10.37
2023-10-27T18:31:11.650Z,10.29
2023-10-27T18:33:39.873Z,10.40
2023-10-27T18:36:14.792Z,10.35
2023-10-27T18:38:44.638Z,10.39
2023-10-27T18:41:12.933Z,10.37
2023-10-27T18:43:44.967Z,10.37
2023-10-27T18:46:15.166Z,10.37
2023-10-27T18:48:44.499Z,10.35
2023-10-27T18:51:14.925Z,10.35
2023-10-27T18:53:44.085Z,10.31
2023-10-27T18:56:15.078Z,10.35
2023-10-27T18:58:45.526Z,10.41
2023-10-27T19:01:15.566Z,10.42
2023-10-27T19:03:48.290Z,10.42
2023-10-27T19:06:21.787Z,10.43
2023-10-27T19:08:50.905Z,10.38
2023-10-27T19:11:21.779Z,10.37
2023-10-27T19:13:50.326Z,10.39
2023-10-27T19:16:19.169Z,10.37
2023-10-27T19:18:49.764Z,10.43
2023-10-27T19:21:20.126Z,10.33
2023-10-27T19:23:52.262Z,10.41
2023-10-27T19:26:22.666Z,10.35
2023-10-27T19:28:53.340Z,10.41
2023-10-27T19:31:23.580Z,10.31
2023-10-27T19:33:52.535Z,10.38
2023-10-27T19:36:24.611Z,10.35
2023-10-27T19:38:54.784Z,10.40
2023-10-27T19:41:26.819Z,10.40
2023-10-27T19:43:56.871Z,10.38
2023-10-27T19:46:27.472Z,10.25
2023-10-27T19:49:00.811Z,10.26
2023-10-27T19:51:32.243Z,10.29
2023-10-27T19:54:01.901Z,10.29
2023-10-27T19:56:31.202Z,10.31
2023-10-27T19:59:01.489Z,10.37
2023-10-27T20:01:32.006Z,10.31
2023-10-27T20:04:03.367Z,10.19
2023-10-27T20:06:34.672Z,10.23
2023-10-27T20:09:07.345Z,10.25
2023-10-27T20:11:38.292Z,10.19
2023-10-27T20:14:08.813Z,10.25
2023-10-27T20:16:40.974Z,10.28
2023-10-27T20:19:10.796Z,10.23
2023-10-27T20:21:44.122Z,10.22
2023-10-27T20:24:15.015Z,10.28
2023-10-27T20:26:45.147Z,10.31
2023-10-27T20:29:17.624Z,10.28
2023-10-27T20:31:48.236Z,10.26
2023-10-27T20:34:17.595Z,10.31
2023-10-27T20:36:47.568Z,10.26
2023-10-27T20:39:16.496Z,10.29
2023-10-27T20:41:45.467Z,10.29
2023-10-27T20:44:14.444Z,10.32
2023-10-27T20:46:43.377Z,10.26
2023-10-27T20:49:12.203Z,10.31
2023-10-27T20:51:41.084Z,10.30
2023-10-27T20:54:11.289Z,10.28
2023-10-27T20:56:40.920Z,10.27
2023-10-27T20:59:09.872Z,10.37
2023-10-27T21:01:38.753Z,10.45
2023-10-27T21:04:10.358Z,10.47
2023-10-27T21:06:40.358Z,10.37
2023-10-27T21:09:10.644Z,10.39
2023-10-27T21:11:39.651Z,10.37
2023-10-27T21:14:08.963Z,10.33
2023-10-27T21:16:37.751Z,10.24
2023-10-27T21:19:06.834Z,10.27
2023-10-27T21:21:35.748Z,10.23
2023-10-27T21:24:04.539Z,10.19
2023-10-27T21:26:34.605Z,10.20
2023-10-27T21:29:03.291Z,10.16
2023-10-27T21:31:32.084Z,10.19
2023-10-27T21:34:00.789Z,10.17
2023-10-27T21:36:30.054Z,10.14
2023-10-27T21:38:59.131Z,10.16
2023-10-27T21:41:28.260Z,10.18
2023-10-27T21:43:58.928Z,10.18
2023-10-27T21:46:28.188Z,10.13
2023-10-27T21:48:57.071Z,10.21
2023-10-27T21:51:25.740Z,10.26
2023-10-27T21:53:54.503Z,10.37
2023-10-27T21:56:23.223Z,10.33
2023-10-27T21:58:52.054Z,10.46
2023-10-27T22:01:24.333Z,10.54
2023-10-27T22:03:58.720Z,10.54
2023-10-27T22:06:27.424Z,10.26
2023-10-27T22:08:56.004Z,10.31
2023-10-27T22:11:24.122Z,10.32
2023-10-27T22:13:52.257Z,10.40
2023-10-27T22:16:22.352Z,10.15
2023-10-27T22:18:51.178Z,10.01
2023-10-27T22:21:19.871Z,9.88
2023-10-27T22:23:48.502Z,10.01
2023-10-27T22:26:18.170Z,10.28
2023-10-27T22:28:47.158Z,10.34
2023-10-27T22:31:15.781Z,10.47
2023-10-27T22:33:45.761Z,10.42
2023-10-27T22:36:15.049Z,10.50
2023-10-27T22:38:43.511Z,10.61
2023-10-27T22:41:12.923Z,10.49
2023-10-27T22:43:42.806Z,10.17
2023-10-27T22:46:11.093Z,10.01
2023-10-27T22:48:39.559Z,10.15
2023-10-27T22:51:11.015Z,9.99
2023-10-27T22:53:40.660Z,9.93
2023-10-27T22:56:10.184Z,9.93
2023-10-27T22:58:38.424Z,9.95
2023-10-27T23:01:11.202Z,9.99
2023-10-27T23:03:40.401Z,9.95
2023-10-27T23:06:12.560Z,10.10
2023-10-27T23:08:41.946Z,10.12
2023-10-27T23:11:11.044Z,10.04
2023-10-27T23:13:40.665Z,10.11
2023-10-27T23:16:10.770Z,10.05
2023-10-27T23:18:42.564Z,10.12
2023-10-27T23:21:14.299Z,10.09
2023-10-27T23:23:44.687Z,10.06
2023-10-27T23:26:13.695Z,10.14
2023-10-27T23:28:42.972Z,10.11
2023-10-27T23:31:13.526Z,10.11
2023-10-27T23:33:42.371Z,10.13
2023-10-27T23:36:17.860Z,10.08
2023-10-27T23:38:47.547Z,10.04
2023-10-27T23:41:16.233Z,9.99
2023-10-27T23:43:45.115Z,10.04
2023-10-27T23:46:15.507Z,9.98
2023-10-27T23:48:44.815Z,9.99
2023-10-27T23:51:14.878Z,9.95
2023-10-27T23:53:43.514Z,9.80
2023-10-27T23:56:12.943Z,9.83
2023-10-27T23:58:41.274Z,9.81
